Time;durP1;ratioP1;P1;durP2;ratioP2;P2;SDS_P1;SDS_P2;PMS_P1;PMS_P2;Temp;Humidity;BMP_temperature;BMP_pressure;BME280_temperature;BME280_humidity;BME280_pressure;Samples;Min_cycle;Max_cycle;Signal;HPM_P1;HPM_P2
2022/08/09 00:00:55;;;;;;;3.35;2.55;;;;;;;-143.66;100.00;63766.88;5067397;28;20045;-65
2022/08/09 00:03:21;;;;;;;2.45;2.10;;;;;;;-143.66;100.00;63766.88;5070936;28;20032;-65
2022/08/09 00:05:46;;;;;;;2.58;2.13;;;;;;;-143.66;100.00;63766.88;5056885;28;20106;-65
2022/08/09 00:08:12;;;;;;;3.20;2.28;;;;;;;-143.66;100.00;63766.88;5061141;28;20035;-64
2022/08/09 00:10:38;;;;;;;3.08;2.38;;;;;;;-143.66;100.00;63766.88;5063787;28;20120;-65
2022/08/09 00:13:08;;;;;;;2.35;2.15;;;;;;;-143.66;100.00;63766.88;5058903;28;20040;-68
2022/08/09 00:15:34;;;;;;;;;;;;;;;-143.66;100.00;63766.88;5059025;28;20055;-67
2022/08/09 00:17:59;;;;;;;2.78;2.53;;;;;;;-143.66;100.00;63766.88;5061829;28;19916;-64
2022/08/09 00:20:25;;;;;;;3.00;2.60;;;;;;;-143.66;100.00;63766.88;5067192;28;20040;-64
2022/08/09 00:22:50;;;;;;;2.55;2.30;;;;;;;-143.66;100.00;63766.88;5066659;28;20044;-64
2022/08/09 00:25:16;;;;;;;2.45;2.15;;;;;;;-143.66;100.00;63766.88;5061581;28;20051;-65
2022/08/09 00:27:41;;;;;;;2.55;2.30;;;;;;;-143.66;100.00;63766.88;5057373;28;20044;-64
2022/08/09 00:30:07;;;;;;;2.78;2.58;;;;;;;-143.66;100.00;63766.88;5068488;28;20032;-65
2022/08/09 00:32:33;;;;;;;5.30;2.70;;;;;;;-143.66;100.00;63766.88;5057475;28;20063;-64
2022/08/09 00:34:59;;;;;;;3.20;2.60;;;;;;;-143.66;100.00;63766.88;5064390;28;20470;-65
2022/08/09 00:37:25;;;;;;;2.28;2.08;;;;;;;-143.66;100.00;63766.88;5060816;28;20052;-64
2022/08/09 00:39:51;;;;;;;2.95;2.55;;;;;;;-143.66;100.00;63766.88;5068568;28;20031;-65
2022/08/09 00:42:16;;;;;;;2.35;2.15;;;;;;;-143.66;100.00;63766.88;5059039;28;20118;-65
2022/08/09 00:44:42;;;;;;;2.50;2.30;;;;;;;-143.66;100.00;63766.88;5059237;28;20035;-65
2022/08/09 00:47:08;;;;;;;2.63;2.33;;;;;;;-143.66;100.00;63766.88;5046236;28;20383;-65
2022/08/09 00:49:33;;;;;;;2.72;2.22;;;;;;;-143.66;100.00;63766.88;5062768;28;20048;-65
2022/08/09 00:51:59;;;;;;;2.55;2.30;;;;;;;-143.66;100.00;63766.88;5063053;28;20090;-64
2022/08/09 00:54:24;;;;;;;2.83;2.50;;;;;;;-143.66;100.00;63766.88;5063490;28;20032;-64
2022/08/09 00:56:50;;;;;;;2.40;2.20;;;;;;;-143.66;100.00;63766.88;5061729;28;20059;-64
2022/08/09 00:59:16;;;;;;;2.90;2.13;;;;;;;-143.66;100.00;63766.88;5062016;28;20043;-65
2022/08/09 01:01:42;;;;;;;3.42;2.65;;;;;;;-143.66;100.00;63766.88;5065806;28;20036;-64
2022/08/09 01:04:36;;;;;;;2.50;2.30;;;;;;;-143.66;100.00;63766.88;5059312;28;20512;-67
2022/08/09 01:07:19;;;;;;;2.70;2.30;;;;;;;-143.66;100.00;63766.88;5056892;28;20062;-64
2022/08/09 01:09:57;;;;;;;2.33;2.10;;;;;;;-143.66;100.00;63766.88;5060370;28;20048;-66
2022/08/09 01:12:31;;;;;;;2.40;2.20;;;;;;;-143.66;100.00;63766.88;5055270;28;20485;-67
2022/08/09 01:15:11;;;;;;;2.50;2.22;;;;;;;-143.66;100.00;63766.88;5067123;28;20032;-66
2022/08/09 01:17:48;;;;;;;3.17;2.60;;;;;;;-143.66;100.00;63766.88;5061507;28;20118;-66
2022/08/09 01:20:27;;;;;;;2.75;2.55;;;;;;;-143.66;100.00;63766.88;5057300;28;20040;-66
2022/08/09 01:23:02;;;;;;;;;;;;;;;-143.66;100.00;63766.88;5063476;28;20116;-66
2022/08/09 01:25:54;;;;;;;2.95;2.50;;;;;;;-143.66;100.00;63766.88;5065090;28;19920;-66
2022/08/09 01:28:22;;;;;;;2.60;2.40;;;;;;;-143.66;100.00;63766.88;5061617;28;20029;-66
2022/08/09 01:30:50;;;;;;;3.42;2.60;;;;;;;-143.66;100.00;63766.88;5060771;28;20055;-66
2022/08/09 01:33:18;;;;;;;3.42;2.45;;;;;;;-143.66;100.00;63766.88;5063275;28;20036;-66
2022/08/09 01:35:52;;;;;;;2.50;2.20;;;;;;;-143.66;100.00;63766.88;5056554;28;20033;-67
2022/08/09 01:38:22;;;;;;;2.88;2.53;;;;;;;-143.66;100.00;63766.88;5064797;28;20394;-66
2022/08/09 01:40:49;;;;;;;;;;;;;;;-143.66;100.00;63766.88;5061606;28;20525;-66
2022/08/09 01:43:15;;;;;;;2.50;2.30;;;;;;;-143.66;100.00;63766.88;5057573;28;20019;-66
2022/08/09 01:45:42;;;;;;;2.72;2.35;;;;;;;-143.66;100.00;63766.88;5047448;28;20041;-67
2022/08/09 01:48:08;;;;;;;2.67;2.47;;;;;;;-143.66;100.00;63766.88;5072597;28;20059;-66
2022/08/09 01:50:34;;;;;;;2.90;2.60;;;;;;;-143.66;100.00;63766.88;5072014;28;20071;-66
2022/08/09 01:53:01;;;;;;;2.97;2.45;;;;;;;-143.66;100.00;63766.88;5071966;28;20450;-66
2022/08/09 01:55:28;;;;;;;2.50;2.25;;;;;;;-143.66;100.00;63766.88;5074660;28;20048;-66
2022/08/09 01:57:55;;;;;;;2.85;2.10;;;;;;;-143.66;100.00;63766.88;5070304;28;20127;-66
2022/08/09 02:00:22;;;;;;;2.65;2.42;;;;;;;-143.66;100.00;63766.88;5059390;28;20055;-66
2022/08/09 02:02:50;;;;;;;2.50;2.30;;;;;;;-143.66;100.00;63766.88;5076464;28;20048;-66
2022/08/09 02:05:19;;;;;;;3.50;2.38;;;;;;;-143.66;100.00;63766.88;5063650;28;20403;-67
2022/08/09 02:07:51;;;;;;;2.35;2.13;;;;;;;-143.66;100.00;63766.88;5030734;28;20130;-66
2022/08/09 02:10:21;;;;;;;2.40;2.20;;;;;;;-143.66;100.00;63766.88;5062037;28;20052;-68
2022/08/09 02:12:47;;;;;;;;;;;;;;;-143.66;100.00;63766.88;5063616;28;20019;-66
2022/08/09 02:15:16;;;;;;;2.55;2.35;;;;;;;-143.66;100.00;63766.88;5063494;28;20426;-66
2022/08/09 02:17:48;;;;;;;2.85;2.55;;;;;;;-143.66;100.00;63766.88;5070019;28;20028;-66
2022/08/09 02:20:14;;;;;;;3.03;2.45;;;;;;;-143.66;100.00;63766.88;5062036;28;20579;-66
2022/08/09 02:22:51;;;;;;;2.72;2.53;;;;;;;-143.66;100.00;63766.88;5068040;28;20565;-66
2022/08/09 02:25:22;;;;;;;3.38;2.45;;;;;;;-143.66;100.00;63766.88;5053426;28;20067;-66
2022/08/09 02:27:58;;;;;;;2.35;2.15;;;;;;;-143.66;100.00;63766.88;5065115;28;20801;-66
2022/08/09 02:30:25;;;;;;;2.67;2.42;;;;;;;-143.66;100.00;63766.88;5058245;28;20139;-66
2022/08/09 02:32:52;;;;;;;2.40;2.20;;;;;;;-143.66;100.00;63766.88;5069457;28;20021;-66
2022/08/09 02:35:22;;;;;;;2.47;2.28;;;;;;;-143.66;100.00;63766.88;5070649;28;20028;-66
2022/08/09 02:37:51;;;;;;;2.75;2.40;;;;;;;-143.66;100.00;63766.88;5065578;28;20032;-66
2022/08/09 02:40:18;;;;;;;2.58;2.38;;;;;;;-143.66;100.00;63766.88;5069042;28;20047;-66
2022/08/09 02:42:48;;;;;;;2.50;2.30;;;;;;;-143.66;100.00;63766.88;5064143;28;20040;-66
2022/08/09 02:45:27;;;;;;;3.00;2.33;;;;;;;-143.66;100.00;63766.88;5067684;28;20409;-66
2022/08/09 02:47:55;;;;;;;2.63;2.20;;;;;;;-143.66;100.00;63766.88;5067308;28;20027;-66
2022/08/09 02:50:28;;;;;;;3.13;2.15;;;;;;;-143.66;100.00;63766.88;5073372;28;20484;-66
2022/08/09 02:52:58;;;;;;;2.78;2.13;;;;;;;-143.66;100.00;63766.88;5070913;28;20040;-66
2022/08/09 02:55:26;;;;;;;2.47;2.28;;;;;;;-143.66;100.00;63766.88;5075159;28;20035;-66
2022/08/09 02:57:53;;;;;;;2.58;2.22;;;;;;;-143.66;100.00;63766.88;5062534;28;20042;-66
2022/08/09 03:00:20;;;;;;;3.38;2.30;;;;;;;-143.66;100.00;63766.88;5065065;28;20040;-66
2022/08/09 03:02:51;;;;;;;2.30;2.10;;;;;;;-143.66;100.00;63766.88;5069313;28;20024;-66
2022/08/09 03:05:17;;;;;;;2.55;2.25;;;;;;;-143.66;100.00;63766.88;5062548;28;20773;-66
2022/08/09 03:07:44;;;;;;;2.80;2.30;;;;;;;-143.66;100.00;63766.88;5068756;28;20098;-67
2022/08/09 03:10:11;;;;;;;2.40;2.20;;;;;;;-143.66;100.00;63766.88;5065547;28;20033;-67
2022/08/09 03:12:39;;;;;;;2.42;2.22;;;;;;;-143.66;100.00;63766.88;5061224;28;20509;-66
2022/08/09 03:15:06;;;;;;;2.30;2.10;;;;;;;-143.66;100.00;63766.88;5069496;28;20040;-66
2022/08/09 03:17:35;;;;;;;2.38;2.17;;;;;;;-143.66;100.00;63766.88;5074282;28;20036;-66
2022/08/09 03:20:01;;;;;;;2.60;2.40;;;;;;;-143.66;100.00;63766.88;5062059;28;20118;-66
2022/08/09 03:22:29;;;;;;;2.60;2.40;;;;;;;-143.66;100.00;63766.88;5058956;28;20050;-66
2022/08/09 03:24:55;;;;;;;2.58;2.28;;;;;;;-143.66;100.00;63766.88;5065731;28;20040;-66
2022/08/09 03:27:22;;;;;;;3.13;2.28;;;;;;;-143.66;100.00;63766.88;5068662;28;20056;-66
2022/08/09 03:29:51;;;;;;;4.07;2.60;;;;;;;-143.66;100.00;63766.88;5061860;28;20398;-66
2022/08/09 03:32:18;;;;;;;2.60;2.40;;;;;;;-143.66;100.00;63766.88;5068476;28;20043;-66
2022/08/09 03:34:44;;;;;;;3.38;2.30;;;;;;;-143.66;100.00;63766.88;5048421;28;20104;-66
2022/08/09 03:37:10;;;;;;;3.10;2.20;;;;;;;-143.66;100.00;63766.88;5070115;28;20040;-67
2022/08/09 03:39:35;;;;;;;2.92;2.33;;;;;;;-143.66;100.00;63766.88;5059457;28;20398;-67
2022/08/09 03:42:01;;;;;;;2.40;2.20;;;;;;;-143.66;100.00;63766.88;5063867;28;20195;-66
2022/08/09 03:44:28;;;;;;;2.45;2.25;;;;;;;-143.66;100.00;63766.88;5063873;28;20059;-66
2022/08/09 03:46:55;;;;;;;2.45;2.22;;;;;;;-143.66;100.00;63766.88;5065553;28;20048;-67
2022/08/09 03:49:23;;;;;;;2.50;2.25;;;;;;;-143.66;100.00;63766.88;5071591;28;20085;-67
2022/08/09 03:51:50;;;;;;;2.85;2.40;;;;;;;-143.66;100.00;63766.88;5047803;28;20531;-67
2022/08/09 03:54:17;;;;;;;2.80;1.85;;;;;;;-143.66;100.00;63766.88;5063479;28;20068;-67
2022/08/09 03:56:44;;;;;;;2.45;2.00;;;;;;;-143.66;100.00;63766.88;5066200;28;20045;-66
2022/08/09 03:59:09;;;;;;;2.10;1.90;;;;;;;-143.66;100.00;63766.88;5060564;28;20514;-66
2022/08/09 04:01:37;;;;;;;2.45;2.10;;;;;;;-143.66;100.00;63766.88;5066067;28;20040;-66
2022/08/09 04:04:04;;;;;;;2.30;2.10;;;;;;;-143.66;100.00;63766.88;5070160;28;20039;-66
2022/08/09 04:06:30;;;;;;;2.65;2.42;;;;;;;-143.66;100.00;63766.88;5066504;28;20561;-67
2022/08/09 04:08:55;;;;;;;2.42;2.05;;;;;;;-143.66;100.00;63766.88;5059150;28;20036;-66
2022/08/09 04:11:21;;;;;;;2.33;2.13;;;;;;;-143.66;100.00;63766.88;5064059;28;20048;-66
2022/08/09 04:13:46;;;;;;;1.88;1.75;;;;;;;-143.66;100.00;63766.88;5059516;28;20029;-66
2022/08/09 04:16:12;;;;;;;2.75;2.38;;;;;;;-143.66;100.00;63766.88;5040450;28;20044;-66
2022/08/09 04:18:39;;;;;;;3.80;2.10;;;;;;;-143.66;100.00;63766.88;5067359;28;20050;-66
2022/08/09 04:21:05;;;;;;;2.50;2.08;;;;;;;-143.66;100.00;63766.88;5065020;28;20036;-66
2022/08/09 04:23:31;;;;;;;2.40;2.20;;;;;;;-143.66;100.00;63766.88;5060765;28;20037;-67
2022/08/09 04:25:56;;;;;;;2.60;2.35;;;;;;;-143.66;100.00;63766.88;5061549;28;20067;-66
2022/08/09 04:28:23;;;;;;;3.88;2.35;;;;;;;-143.66;100.00;63766.88;5065859;28;20044;-67
2022/08/09 04:30:49;;;;;;;3.17;2.47;;;;;;;-143.66;100.00;63766.88;5064722;28;20093;-67
2022/08/09 04:33:14;;;;;;;2.63;2.20;;;;;;;-143.66;100.00;63766.88;5063470;28;20036;-66
2022/08/09 04:35:41;;;;;;;2.30;2.10;;;;;;;-143.66;100.00;63766.88;5066363;28;20047;-66
2022/08/09 04:38:07;;;;;;;3.05;2.25;;;;;;;-143.66;100.00;63766.88;5062646;28;20911;-66
2022/08/09 04:40:48;;;;;;;2.13;1.95;;;;;;;-143.66;100.00;63766.88;5057938;28;20047;-66
2022/08/09 04:43:14;;;;;;;3.08;2.53;;;;;;;-143.66;100.00;63766.88;5060052;28;20047;-66
2022/08/09 04:45:40;;;;;;;3.33;2.17;;;;;;;-143.66;100.00;63766.88;5049970;28;20063;-66
2022/08/09 04:48:06;;;;;;;2.60;2.20;;;;;;;-143.66;100.00;63766.88;5072449;28;20102;-66
2022/08/09 04:50:31;;;;;;;2.30;2.10;;;;;;;-143.66;100.00;63766.88;5061326;28;20048;-66
2022/08/09 04:52:58;;;;;;;2.38;2.17;;;;;;;-143.66;100.00;63766.88;5063513;28;20032;-66
2022/08/09 04:59:17;;;;;;;2.40;2.20;;;;;;;-143.66;100.00;63766.88;5053105;28;20061;-66
2022/08/09 05:01:43;;;;;;;3.20;2.20;;;;;;;-143.66;100.00;63766.88;5059018;28;20667;-67
2022/08/09 05:04:08;;;;;;;2.58;2.10;;;;;;;-143.66;100.00;63766.88;5062300;28;20036;-67
2022/08/09 05:06:34;;;;;;;2.28;2.08;;;;;;;-143.66;100.00;63766.88;5063650;28;20060;-67
2022/08/09 05:08:59;;;;;;;2.45;2.05;;;;;;;-143.66;100.00;63766.88;5061091;28;20419;-66
2022/08/09 05:11:26;;;;;;;2.85;2.20;;;;;;;-143.66;100.00;63766.88;5060198;28;20035;-67
2022/08/09 05:13:52;;;;;;;2.95;2.45;;;;;;;-143.66;100.00;63766.88;5056746;28;20445;-66
2022/08/09 05:16:18;;;;;;;2.70;2.03;;;;;;;-143.66;100.00;63766.88;5061989;28;20028;-66
2022/08/09 05:18:44;;;;;;;3.17;2.38;;;;;;;-143.66;100.00;63766.88;5063023;28;20048;-66
2022/08/09 05:21:09;;;;;;;3.05;2.20;;;;;;;-143.66;100.00;63766.88;5062009;28;20036;-67
2022/08/09 05:23:35;;;;;;;2.20;2.00;;;;;;;-143.66;100.00;63766.88;5063581;28;20075;-67
2022/08/09 05:26:00;;;;;;;2.45;2.25;;;;;;;-143.66;100.00;63766.88;5051980;28;20037;-67
2022/08/09 05:28:25;;;;;;;2.20;2.00;;;;;;;-143.66;100.00;63766.88;5044754;28;20063;-67
2022/08/09 05:30:51;;;;;;;2.20;2.00;;;;;;;-143.66;100.00;63766.88;5064012;28;20047;-67
2022/08/09 05:33:16;;;;;;;3.22;2.15;;;;;;;-143.66;100.00;63766.88;5044987;28;20040;-66
2022/08/09 05:35:42;;;;;;;2.58;1.80;;;;;;;-143.66;100.00;63766.88;5065317;28;20054;-66
2022/08/09 05:38:07;;;;;;;2.45;1.80;;;;;;;-143.66;100.00;63766.88;5060461;28;20379;-66
2022/08/09 05:40:33;;;;;;;2.17;1.95;;;;;;;-143.66;100.00;63766.88;5060550;28;20036;-67
2022/08/09 05:42:58;;;;;;;2.03;1.85;;;;;;;-143.66;100.00;63766.88;5038409;28;20111;-66
2022/08/09 05:45:24;;;;;;;2.30;2.10;;;;;;;-143.66;100.00;63766.88;5063499;28;20048;-66
2022/08/09 05:47:49;;;;;;;2.25;2.05;;;;;;;-143.66;100.00;63766.88;5056825;28;20040;-67
2022/08/09 05:50:15;;;;;;;2.55;2.00;;;;;;;-143.66;100.00;63766.88;5034375;28;20047;-66
2022/08/09 05:52:42;;;;;;;2.30;2.08;;;;;;;-143.66;100.00;63766.88;5054414;28;20041;-66
2022/08/09 05:55:09;;;;;;;2.30;2.08;;;;;;;-143.66;100.00;63766.88;5052845;28;20052;-66
2022/08/09 05:57:35;;;;;;;2.10;1.85;;;;;;;-143.66;100.00;63766.88;5061166;28;20035;-66
2022/08/09 06:00:06;;;;;;;2.58;1.85;;;;;;;-143.66;100.00;63766.88;5056445;28;20060;-67
2022/08/09 06:02:36;;;;;;;2.47;1.80;;;;;;;-143.66;100.00;63766.88;5060521;28;20037;-67
2022/08/09 06:05:02;;;;;;;2.63;2.00;;;;;;;-143.66;100.00;63766.88;5058825;28;20559;-66
2022/08/09 06:07:28;;;;;;;1.77;1.67;;;;;;;-143.66;100.00;63766.88;5055884;28;20048;-66
2022/08/09 06:09:54;;;;;;;2.08;1.80;;;;;;;-143.66;100.00;63766.88;5056107;28;21916;-67
2022/08/09 06:12:20;;;;;;;2.00;1.90;;;;;;;-143.66;100.00;63766.88;5053779;28;20074;-64
2022/08/09 06:14:45;;;;;;;1.98;1.88;;;;;;;-143.66;100.00;63766.88;5056105;28;20099;-66
2022/08/09 06:17:11;;;;;;;1.77;1.63;;;;;;;-143.66;100.00;63766.88;5057559;28;21201;-66
2022/08/09 06:19:37;;;;;;;2.90;2.00;;;;;;;-143.66;100.00;63766.88;5047360;28;20128;-66
2022/08/09 06:22:02;;;;;;;2.63;1.83;;;;;;;-143.66;100.00;63766.88;5062374;28;20502;-66
2022/08/09 06:24:28;;;;;;;1.92;1.80;;;;;;;-143.66;100.00;63766.88;5059344;28;20106;-67
2022/08/09 06:26:54;;;;;;;1.70;1.60;;;;;;;-143.66;100.00;63766.88;5060715;28;20621;-66
2022/08/09 06:29:19;;;;;;;2.00;1.80;;;;;;;-143.66;100.00;63766.88;5038084;28;20037;-66
2022/08/09 06:31:45;;;;;;;2.80;1.67;;;;;;;-143.66;100.00;63766.88;5071545;28;20040;-67
2022/08/09 06:34:10;;;;;;;1.95;1.83;;;;;;;-143.66;100.00;63766.88;5061880;28;20053;-67
2022/08/09 06:36:36;;;;;;;1.70;1.60;;;;;;;-143.66;100.00;63766.88;5056947;28;20048;-67
2022/08/09 06:39:02;;;;;;;1.58;1.48;;;;;;;-143.66;100.00;63766.88;5059326;28;20090;-67
2022/08/09 06:41:28;;;;;;;1.95;1.75;;;;;;;-143.66;100.00;63766.88;5070494;28;20081;-67
2022/08/09 06:43:53;;;;;;;2.28;1.70;;;;;;;-143.66;100.00;63766.88;5061338;28;20041;-67
2022/08/09 06:46:19;;;;;;;2.13;1.92;;;;;;;-143.66;100.00;63766.88;5061613;28;20045;-67
2022/08/09 06:48:44;;;;;;;1.80;1.70;;;;;;;-143.66;100.00;63766.88;5066397;28;20032;-67
2022/08/09 06:51:10;;;;;;;2.20;1.90;;;;;;;-143.66;100.00;63766.88;5067826;28;20036;-67
2022/08/09 06:53:36;;;;;;;1.67;1.50;;;;;;;-143.66;100.00;63766.88;5058544;28;20056;-67
2022/08/09 06:56:02;;;;;;;2.10;1.90;;;;;;;-143.66;100.00;63766.88;5069337;28;20659;-66
2022/08/09 06:58:29;;;;;;;1.90;1.60;;;;;;;-143.66;100.00;63766.88;5067442;28;20139;-66
2022/08/09 07:00:55;;;;;;;2.03;1.80;;;;;;;-143.66;100.00;63766.88;5061545;28;20043;-67
2022/08/09 07:03:22;;;;;;;1.80;1.70;;;;;;;-143.66;100.00;63766.88;5059702;28;20636;-66
2022/08/09 07:05:47;;;;;;;2.20;2.00;;;;;;;-143.66;100.00;63766.88;5062840;28;20053;-66
2022/08/09 07:08:13;;;;;;;2.10;1.73;;;;;;;-143.66;100.00;63766.88;5070348;28;20040;-66
2022/08/09 07:10:38;;;;;;;2.30;2.10;;;;;;;-143.66;100.00;63766.88;5069901;28;20600;-66
2022/08/09 07:13:04;;;;;;;2.10;1.85;;;;;;;-143.66;100.00;63766.88;5063784;28;20028;-66
2022/08/09 07:15:30;;;;;;;1.77;1.58;;;;;;;-143.66;100.00;63766.88;5060939;28;20032;-66
2022/08/09 07:17:56;;;;;;;2.78;2.20;;;;;;;-143.66;100.00;63766.88;5064462;28;20032;-67
2022/08/09 07:20:22;;;;;;;3.95;2.10;;;;;;;-143.66;100.00;63766.88;5064730;28;20097;-69
2022/08/09 07:22:48;;;;;;;3.42;2.10;;;;;;;-143.66;100.00;63766.88;5057533;28;20123;-70
2022/08/09 07:25:13;;;;;;;2.78;1.90;;;;;;;-143.66;100.00;63766.88;5047413;28;20032;-69
2022/08/09 07:27:40;;;;;;;2.88;2.10;;;;;;;-143.66;100.00;63766.88;5063069;28;20048;-69
2022/08/09 07:30:06;;;;;;;2.00;1.80;;;;;;;-143.66;100.00;63766.88;5067330;28;20040;-69
2022/08/09 07:32:32;;;;;;;3.97;1.90;;;;;;;-143.66;100.00;63766.88;5066910;28;20078;-69
2022/08/09 07:34:58;;;;;;;2.13;1.92;;;;;;;-143.66;100.00;63766.88;5068554;28;20482;-69
2022/08/09 07:37:23;;;;;;;4.45;2.03;;;;;;;-143.66;100.00;63766.88;5069419;28;20509;-69
2022/08/09 07:39:49;;;;;;;3.70;2.10;;;;;;;-143.66;100.00;63766.88;5062452;28;20040;-69
2022/08/09 07:42:14;;;;;;;2.42;1.80;;;;;;;-143.66;100.00;63766.88;5054269;28;20044;-69
2022/08/09 07:44:41;;;;;;;3.42;2.00;;;;;;;-143.66;100.00;63766.88;5066030;28;20751;-69
2022/08/09 07:47:06;;;;;;;5.03;1.80;;;;;;;-143.66;100.00;63766.88;5070901;28;20466;-69
2022/08/09 07:49:31;;;;;;;3.75;1.95;;;;;;;-143.66;100.00;63766.88;5063301;28;20044;-69
2022/08/09 07:51:57;;;;;;;5.15;2.40;;;;;;;-143.66;100.00;63766.88;5068392;28;20028;-69
2022/08/09 07:54:24;;;;;;;2.03;1.60;;;;;;;-143.66;100.00;63766.88;5062694;28;20040;-69
2022/08/09 07:56:50;;;;;;;2.83;1.52;;;;;;;-143.66;100.00;63766.88;5052053;28;20048;-69
2022/08/09 07:59:19;;;;;;;3.40;1.80;;;;;;;-143.66;100.00;63766.88;5068177;28;20051;-70
2022/08/09 08:01:45;;;;;;;3.38;1.95;;;;;;;-143.66;100.00;63766.88;5059414;28;20042;-69
2022/08/09 08:04:10;;;;;;;4.50;2.00;;;;;;;-143.66;100.00;63766.88;5060587;28;20036;-70
2022/08/09 08:06:36;;;;;;;5.25;1.80;;;;;;;-143.66;100.00;63766.88;5061831;28;20064;-70
2022/08/09 08:09:01;;;;;;;2.00;1.80;;;;;;;-143.66;100.00;63766.88;5052892;28;20036;-69
2022/08/09 08:11:27;;;;;;;3.53;2.03;;;;;;;-143.66;100.00;63766.88;5042472;28;20039;-69
2022/08/09 08:13:52;;;;;;;4.13;1.77;;;;;;;-143.66;100.00;63766.88;5063440;28;20044;-69
2022/08/09 08:16:18;;;;;;;5.82;2.45;;;;;;;-143.66;100.00;63766.88;5060138;28;20032;-69
2022/08/09 08:18:43;;;;;;;2.83;1.60;;;;;;;-143.66;100.00;63766.88;5060756;28;20787;-70
2022/08/09 08:21:09;;;;;;;1.88;1.48;;;;;;;-143.66;100.00;63766.88;5065846;28;20036;-70
2022/08/09 08:23:34;;;;;;;4.68;1.98;;;;;;;-143.66;100.00;63766.88;5062161;28;20055;-67
2022/08/09 08:26:00;;;;;;;3.28;1.85;;;;;;;-143.66;100.00;63766.88;5056821;28;20033;-68
2022/08/09 08:28:25;;;;;;;3.38;1.63;;;;;;;-143.66;100.00;63766.88;5062754;28;21255;-67
2022/08/09 08:30:51;;;;;;;3.20;1.63;;;;;;;-143.66;100.00;63766.88;5064047;28;20036;-67
2022/08/09 08:33:17;;;;;;;3.05;1.80;;;;;;;-143.66;100.00;63766.88;5062629;28;20587;-67
2022/08/09 08:35:42;;;;;;;2.42;1.67;;;;;;;-143.66;100.00;63766.88;5072043;28;20036;-69
2022/08/09 08:38:08;;;;;;;3.42;1.80;;;;;;;-143.66;100.00;63766.88;5062727;28;20039;-70
2022/08/09 08:40:33;;;;;;;4.40;2.00;;;;;;;-143.66;100.00;63766.88;5055895;28;20094;-70
2022/08/09 08:43:01;;;;;;;3.42;1.60;;;;;;;-143.66;100.00;63766.88;5064755;28;20043;-70
2022/08/09 08:45:44;;;;;;;4.65;1.80;;;;;;;-143.66;100.00;63766.88;5065587;28;20497;-69
2022/08/09 08:48:10;;;;;;;3.00;1.70;;;;;;;-143.66;100.00;63766.88;5057946;28;20040;-70
2022/08/09 08:50:36;;;;;;;4.68;2.10;;;;;;;-143.66;100.00;63766.88;5054845;28;20097;-70
2022/08/09 08:53:01;;;;;;;4.20;2.00;;;;;;;-143.66;100.00;63766.88;5053435;28;20403;-69
2022/08/09 08:55:27;;;;;;;2.42;1.60;;;;;;;-143.66;100.00;63766.88;5044660;28;20043;-70
2022/08/09 08:57:54;;;;;;;1.60;1.50;;;;;;;-143.66;100.00;63766.88;5062529;28;20040;-70
2022/08/09 09:00:20;;;;;;;3.20;1.70;;;;;;;-143.66;100.00;63766.88;5063945;28;20124;-70
2022/08/09 09:02:46;;;;;;;2.38;1.63;;;;;;;-143.66;100.00;63766.88;5060211;28;20469;-70
2022/08/09 09:05:13;;;;;;;1.85;1.60;;;;;;;-143.66;100.00;63766.88;5046513;28;20094;-70
2022/08/09 09:07:42;;;;;;;3.15;1.90;;;;;;;-143.66;100.00;63766.88;5061675;28;20060;-70
2022/08/09 09:10:09;;;;;;;2.85;1.45;;;;;;;-143.66;100.00;63766.88;5048689;28;20040;-69
2022/08/09 09:12:35;;;;;;;2.90;1.95;;;;;;;-143.66;100.00;63766.88;5058959;28;20035;-69
2022/08/09 09:15:03;;;;;;;2.78;1.70;;;;;;;-143.66;100.00;63766.88;5064875;28;20394;-70
2022/08/09 09:17:29;;;;;;;2.75;1.70;;;;;;;-143.66;100.00;63766.88;5059614;28;20357;-70
2022/08/09 09:19:54;;;;;;;2.13;1.50;;;;;;;-143.66;100.00;63766.88;5064264;28;20379;-69
2022/08/09 09:22:21;;;;;;;4.25;1.48;;;;;;;-143.66;100.00;63766.88;5075676;28;20036;-69
2022/08/09 09:24:47;;;;;;;2.45;1.65;;;;;;;-143.66;100.00;63766.88;5062688;28;20111;-69
2022/08/09 09:27:25;;;;;;;1.50;1.40;;;;;;;-143.66;100.00;63766.88;5060233;28;20040;-69
2022/08/09 09:29:52;;;;;;;1.73;1.30;;;;;;;-143.66;100.00;63766.88;5065112;28;20044;-70
2022/08/09 09:32:22;;;;;;;3.30;1.42;;;;;;;-143.66;100.00;63766.88;5061445;28;20671;-69
2022/08/09 09:35:09;;;;;;;3.33;1.75;;;;;;;-143.66;100.00;63766.88;5065175;28;20398;-69
2022/08/09 09:37:36;;;;;;;2.05;1.48;;;;;;;-143.66;100.00;63766.88;5062327;28;20047;-69
2022/08/09 09:40:03;;;;;;;1.50;1.40;;;;;;;-143.66;100.00;63766.88;5063242;28;20640;-70
2022/08/09 09:42:29;;;;;;;1.35;1.27;;;;;;;-143.66;100.00;63766.88;5062584;28;20151;-70
2022/08/09 09:45:00;;;;;;;1.63;1.33;;;;;;;-143.66;100.00;63766.88;5062944;28;20516;-67
2022/08/09 09:47:27;;;;;;;2.85;1.70;;;;;;;-143.66;100.00;63766.88;5059641;28;20663;-69
2022/08/09 09:49:53;;;;;;;2.03;1.80;;;;;;;-143.66;100.00;63766.88;5065630;28;20040;-69
2022/08/09 09:52:20;;;;;;;1.70;1.60;;;;;;;-143.66;100.00;63766.88;5063531;28;20071;-68
2022/08/09 09:54:46;;;;;;;2.22;1.60;;;;;;;-143.66;100.00;63766.88;5063304;28;20094;-69
2022/08/09 09:57:20;;;;;;;2.80;1.50;;;;;;;-143.66;100.00;63766.88;5061347;28;20048;-69
2022/08/09 09:59:48;;;;;;;2.58;1.80;;;;;;;-143.66;100.00;63766.88;5059849;28;20036;-68
2022/08/09 10:02:14;;;;;;;2.25;1.33;;;;;;;-143.66;100.00;63766.88;5064276;28;20048;-69
2022/08/09 10:04:41;;;;;;;2.05;1.50;;;;;;;-143.66;100.00;63766.88;5063197;28;20113;-69
2022/08/09 10:07:26;;;;;;;2.30;1.35;;;;;;;-143.66;100.00;63766.88;5064770;28;20048;-69
2022/08/09 10:09:56;;;;;;;1.63;1.42;;;;;;;-143.66;100.00;63766.88;5064510;28;20359;-69
2022/08/09 10:12:37;;;;;;;2.13;1.50;;;;;;;-143.66;100.00;63766.88;5066176;28;20035;-69
2022/08/09 10:15:15;;;;;;;5.75;1.50;;;;;;;-143.66;100.00;63766.88;5047548;28;20047;-69
2022/08/09 10:17:43;;;;;;;1.63;1.33;;;;;;;-143.66;100.00;63766.88;5064843;28;20674;-69
2022/08/09 10:20:20;;;;;;;1.40;1.30;;;;;;;-143.66;100.00;63766.88;5066602;28;20097;-69
2022/08/09 10:22:47;;;;;;;1.98;1.60;;;;;;;-143.66;100.00;63766.88;5062103;28;20044;-69
2022/08/09 10:25:14;;;;;;;1.75;1.40;;;;;;;-143.66;100.00;63766.88;5062825;28;20032;-69
2022/08/09 10:27:44;;;;;;;1.80;1.20;;;;;;;-143.66;100.00;63766.88;5065192;28;20052;-69
2022/08/09 10:30:10;;;;;;;1.75;1.40;;;;;;;-143.66;100.00;63766.88;5068506;28;20085;-69
2022/08/09 10:32:36;;;;;;;1.73;1.63;;;;;;;-143.66;100.00;63766.88;5062841;28;20491;-69
2022/08/09 10:35:03;;;;;;;2.70;1.42;;;;;;;-143.66;100.00;63766.88;5066275;28;20075;-69
2022/08/09 10:37:28;;;;;;;1.95;1.42;;;;;;;-143.66;100.00;63766.88;5067370;28;20036;-69
2022/08/09 10:39:54;;;;;;;1.92;1.60;;;;;;;-143.66;100.00;63766.88;5062145;28;20048;-69
2022/08/09 10:42:21;;;;;;;2.13;1.27;;;;;;;-143.66;100.00;63766.88;5059949;28;20113;-69
2022/08/09 10:44:58;;;;;;;1.40;1.30;;;;;;;-143.66;100.00;63766.88;5065592;28;20048;-69
2022/08/09 10:47:31;;;;;;;1.80;1.27;;;;;;;-143.66;100.00;63766.88;5066608;28;20032;-69
2022/08/09 10:50:13;;;;;;;1.38;1.30;;;;;;;-143.66;100.00;63766.88;5065752;28;20036;-69
2022/08/09 10:52:57;;;;;;;1.45;1.35;;;;;;;-143.66;100.00;63766.88;5062517;28;20028;-69
2022/08/09 10:55:26;;;;;;;1.48;1.38;;;;;;;-143.66;100.00;63766.88;5031463;28;20043;-69
2022/08/09 10:57:53;;;;;;;1.70;1.60;;;;;;;-143.66;100.00;63766.88;5066082;28;20363;-69
2022/08/09 11:00:28;;;;;;;1.60;1.50;;;;;;;-143.66;100.00;63766.88;5066201;28;20076;-69
2022/08/09 11:02:55;;;;;;;3.80;1.90;;;;;;;-143.66;100.00;63766.88;5064454;28;20044;-69
2022/08/09 11:05:21;;;;;;;1.75;1.38;;;;;;;-143.66;100.00;63766.88;5067663;28;20421;-69
2022/08/09 11:07:48;;;;;;;2.15;1.55;;;;;;;-143.66;100.00;63766.88;5065216;28;20044;-69
2022/08/09 11:10:14;;;;;;;1.30;1.30;;;;;;;-143.66;100.00;63766.88;5059240;28;20448;-68
2022/08/09 11:12:40;;;;;;;1.55;1.42;;;;;;;-143.66;100.00;63766.88;5066778;28;20498;-69
2022/08/09 11:15:17;;;;;;;1.27;1.17;;;;;;;-143.66;100.00;63766.88;5065268;28;20071;-69